Time;durP1;ratioP1;P1;durP2;ratioP2;P2;SDS_P1;SDS_P2;PMS_P1;PMS_P2;Temp;Humidity;BMP_temperature;BMP_pressure;BME280_temperature;BME280_humidity;BME280_pressure;Samples;Min_cycle;Max_cycle;Signal;HPM_P1;HPM_P2
2021/12/15 00:01:16;;;;;;;3.45;1.20;;;6.40;99.90;;;;;;6177151;23;20667;-73
2021/12/15 00:03:49;;;;;;;1.70;0.90;;;6.30;99.90;;;;;;6177699;23;20251;-76
2021/12/15 00:06:36;;;;;;;1.30;1.20;;;6.20;99.90;;;;;;6179175;23;20194;-75
2021/12/15 03:06:29;;;;;;;4.82;4.32;;;4.50;99.90;;;;;;6203344;23;20236;-75
2021/12/15 03:15:15;;;;;;;4.88;4.47;;;4.40;99.90;;;;;;6210969;23;20189;-77
2021/12/15 03:15:33;;;;;;;;;;;;;;;;;;;;;
2021/12/15 03:18:21;;;;;;;7.65;4.60;;;4.30;99.90;;;;;;6208641;23;20201;-76
2021/12/15 03:20:55;;;;;;;6.32;5.35;;;4.30;99.90;;;;;;6213736;23;20493;-75
2021/12/15 03:23:32;;;;;;;5.25;4.75;;;4.30;99.90;;;;;;6206767;23;20846;-71
2021/12/15 03:39:00;;;;;;;4.28;3.80;;;4.30;99.90;;;;;;6181946;23;20235;-73
2021/12/15 03:45:42;;;;;;;4.15;3.55;;;4.20;99.90;;;;;;6182430;23;20281;-75
2021/12/15 03:48:45;;;;;;;5.00;4.22;;;4.10;99.90;;;;;;6207357;23;20508;-79
2021/12/15 03:55:00;;;;;;;9.55;4.13;;;4.10;99.90;;;;;;6206324;23;20182;-78
2021/12/15 03:57:58;;;;;;;3.75;3.30;;;4.20;99.90;;;;;;6194996;23;20288;-66
2021/12/15 04:00:30;;;;;;;4.88;3.30;;;4.10;99.90;;;;;;6209242;23;20185;-74
2021/12/15 04:03:01;;;;;;;5.60;3.58;;;4.20;99.90;;;;;;6210244;23;20182;-68
2021/12/15 04:05:33;;;;;;;6.28;3.40;;;4.20;99.90;;;;;;6228356;23;20200;-69
2021/12/15 04:08:04;;;;;;;3.67;3.38;;;4.20;99.90;;;;;;6238088;23;20188;-70
2021/12/15 04:10:36;;;;;;;3.53;3.22;;;4.30;99.90;;;;;;6238320;23;20188;-68
2021/12/15 04:13:09;;;;;;;3.70;3.40;;;4.30;99.90;;;;;;6241363;23;20185;-69
2021/12/15 04:15:44;;;;;;;3.70;3.33;;;4.40;99.90;;;;;;6239948;23;20264;-69
2021/12/15 04:18:15;;;;;;;4.80;3.00;;;4.30;99.90;;;;;;6237875;23;20254;-70
2021/12/15 04:20:46;;;;;;;4.18;3.80;;;4.40;99.90;;;;;;6236871;23;20602;-70
2021/12/15 04:23:20;;;;;;;3.65;3.25;;;4.50;99.90;;;;;;6241067;23;20193;-71
2021/12/15 04:25:56;;;;;;;3.65;3.35;;;4.60;99.90;;;;;;6239850;23;20188;-71
2021/12/15 04:28:31;;;;;;;3.58;3.28;;;4.60;99.90;;;;;;6241049;23;20196;-71
2021/12/15 04:31:05;;;;;;;3.55;3.22;;;4.50;99.90;;;;;;6237513;23;20187;-71
2021/12/15 04:33:40;;;;;;;5.20;3.42;;;4.50;99.90;;;;;;6240629;23;20313;-71
2021/12/15 04:36:12;;;;;;;3.75;3.45;;;4.60;99.90;;;;;;6239480;23;20212;-71
2021/12/15 04:38:45;;;;;;;3.97;3.50;;;4.70;99.90;;;;;;6239081;23;20208;-71
2021/12/15 04:41:20;;;;;;;9.02;4.05;;;4.80;99.90;;;;;;6239462;23;20193;-71
2021/12/15 04:44:10;;;;;;;6.55;3.67;;;4.80;99.90;;;;;;6241841;23;20470;-71
2021/12/15 04:46:43;;;;;;;5.57;3.28;;;4.80;99.90;;;;;;6239334;23;20180;-70
2021/12/15 04:49:17;;;;;;;5.63;3.45;;;4.80;99.90;;;;;;6236595;23;20189;-72
2021/12/15 04:51:50;;;;;;;6.85;4.57;;;4.90;99.90;;;;;;6241686;23;20188;-72
2021/12/15 04:54:21;;;;;;;4.63;3.70;;;4.90;99.90;;;;;;6239284;23;20506;-71
2021/12/15 04:56:54;;;;;;;5.03;3.63;;;5.00;99.90;;;;;;6239682;23;20247;-71
2021/12/15 04:59:26;;;;;;;5.18;3.45;;;5.00;99.90;;;;;;6239263;23;20542;-71
2021/12/15 05:01:56;;;;;;;5.30;3.70;;;5.00;99.90;;;;;;6239800;23;20185;-71
2021/12/15 05:04:28;;;;;;;4.20;3.65;;;5.00;99.90;;;;;;6240085;23;20181;-70
2021/12/15 05:06:59;;;;;;;3.47;3.17;;;5.00;99.90;;;;;;6239789;23;20625;-70
2021/12/15 05:09:30;;;;;;;4.93;3.40;;;4.90;99.90;;;;;;6239164;23;20578;-70
2021/12/15 05:12:03;;;;;;;5.20;4.35;;;4.80;99.90;;;;;;6239964;23;20181;-71
2021/12/15 05:14:34;;;;;;;5.32;4.00;;;4.80;99.90;;;;;;6239445;23;20182;-70
2021/12/15 05:17:06;;;;;;;4.28;3.80;;;4.70;99.90;;;;;;6240252;23;20197;-70
2021/12/15 05:19:37;;;;;;;5.85;4.43;;;4.70;99.90;;;;;;6235701;23;20276;-70
2021/12/15 05:22:09;;;;;;;6.70;5.35;;;4.60;99.90;;;;;;6239480;23;20187;-69
2021/12/15 05:24:43;;;;;;;4.55;3.88;;;4.60;99.90;;;;;;6239123;23;20181;-69
2021/12/15 05:27:18;;;;;;;9.77;5.35;;;4.50;99.90;;;;;;6239912;23;20184;-69
2021/12/15 05:29:50;;;;;;;5.32;4.82;;;4.50;99.90;;;;;;6236634;23;20177;-71
2021/12/15 05:32:22;;;;;;;6.45;4.80;;;4.50;99.90;;;;;;6239786;23;20185;-71
2021/12/15 05:34:56;;;;;;;6.10;5.50;;;4.50;99.90;;;;;;6240403;23;20326;-71
2021/12/15 05:37:27;;;;;;;6.45;5.47;;;4.50;99.90;;;;;;6239649;23;20264;-70
2021/12/15 05:39:59;;;;;;;9.10;5.60;;;4.40;99.90;;;;;;6237630;23;20201;-70
2021/12/15 05:42:31;;;;;;;7.60;6.45;;;4.50;99.90;;;;;;6237386;23;20499;-70
2021/12/15 05:45:03;;;;;;;6.03;5.43;;;4.50;99.90;;;;;;6241403;23;20512;-70
2021/12/15 05:47:34;;;;;;;7.22;6.10;;;4.40;99.90;;;;;;6236621;23;20203;-72
2021/12/15 05:50:07;;;;;;;6.85;6.15;;;4.40;99.90;;;;;;6236217;23;20187;-70
2021/12/15 05:52:39;;;;;;;10.65;6.00;;;4.40;99.90;;;;;;6237645;23;20187;-70
2021/12/15 05:55:12;;;;;;;6.40;5.80;;;4.50;99.90;;;;;;6240084;23;20185;-70
2021/12/15 05:57:45;;;;;;;9.93;6.43;;;4.50;99.90;;;;;;6239264;23;20188;-69
2021/12/15 06:00:21;;;;;;;7.35;6.65;;;4.60;99.90;;;;;;6238996;23;20506;-70
2021/12/15 06:02:52;;;;;;;6.95;6.20;;;4.60;99.90;;;;;;6234663;23;20348;-68
2021/12/15 06:05:24;;;;;;;6.60;5.90;;;4.60;99.90;;;;;;6237681;23;20362;-72
2021/12/15 06:07:58;;;;;;;7.68;6.60;;;4.60;99.90;;;;;;6238912;23;20195;-70
2021/12/15 06:10:30;;;;;;;7.47;6.13;;;4.60;99.90;;;;;;6237581;23;20177;-70
2021/12/15 06:13:03;;;;;;;6.65;6.05;;;4.50;99.90;;;;;;6238738;23;20188;-70
2021/12/15 06:15:34;;;;;;;7.95;6.15;;;4.60;99.90;;;;;;6241091;23;20531;-69
2021/12/15 06:18:07;;;;;;;6.78;5.97;;;4.60;99.90;;;;;;6239287;23;20712;-69
2021/12/15 06:20:39;;;;;;;8.05;5.63;;;4.70;99.90;;;;;;6241209;23;20181;-68
2021/12/15 06:23:18;;;;;;;8.32;5.75;;;4.70;99.90;;;;;;6238600;23;20281;-69
2021/12/15 06:25:52;;;;;;;9.00;6.50;;;4.70;99.90;;;;;;6238674;23;20204;-70
2021/12/15 06:28:26;;;;;;;7.82;6.10;;;4.70;99.90;;;;;;6240341;23;20653;-69
2021/12/15 06:30:58;;;;;;;6.43;5.82;;;4.70;99.90;;;;;;6238737;23;20181;-70
2021/12/15 06:33:31;;;;;;;6.68;5.25;;;4.70;99.90;;;;;;6239168;23;20185;-69
2021/12/15 06:36:03;;;;;;;6.63;5.50;;;4.70;99.90;;;;;;6241387;23;20181;-69
2021/12/15 06:38:37;;;;;;;7.45;6.10;;;4.60;99.90;;;;;;6238643;23;20526;-69
2021/12/15 06:41:10;;;;;;;5.63;5.03;;;4.60;99.90;;;;;;6236790;23;20503;-69
2021/12/15 06:43:45;;;;;;;7.43;6.05;;;4.60;99.90;;;;;;6240453;23;20563;-69
2021/12/15 06:46:46;;;;;;;6.53;5.07;;;4.60;99.90;;;;;;6238552;23;20507;-68
2021/12/15 07:00:34;;;;;;;6.80;4.63;;;4.70;99.90;;;;;;6238285;23;20224;-70
2021/12/15 07:03:06;;;;;;;7.53;4.80;;;4.70;99.90;;;;;;6239126;23;20244;-69
2021/12/15 07:05:37;;;;;;;5.05;4.55;;;4.80;99.90;;;;;;6240464;23;20486;-69
2021/12/15 07:08:09;;;;;;;5.10;3.90;;;4.80;99.90;;;;;;6236026;23;20185;-69
2021/12/15 07:10:44;;;;;;;7.60;4.50;;;4.80;99.90;;;;;;6238350;23;20739;-69
2021/12/15 07:13:16;;;;;;;4.72;4.13;;;4.80;99.90;;;;;;6238843;23;20185;-70
2021/12/15 07:15:52;;;;;;;5.80;4.07;;;4.80;99.90;;;;;;6237824;23;20181;-70
2021/12/15 07:18:27;;;;;;;4.55;4.15;;;4.90;99.90;;;;;;6236911;23;20188;-71
2021/12/15 07:21:05;;;;;;;4.30;3.90;;;5.00;99.90;;;;;;6238965;23;20200;-70
2021/12/15 07:23:36;;;;;;;4.90;3.97;;;4.90;99.90;;;;;;6238510;23;20191;-70
2021/12/15 07:26:07;;;;;;;5.22;4.55;;;5.00;99.90;;;;;;6238620;23;20193;-70
2021/12/15 07:28:38;;;;;;;4.45;3.25;;;5.00;99.90;;;;;;6238719;23;20173;-70
2021/12/15 07:31:12;;;;;;;3.10;2.85;;;5.00;99.90;;;;;;6232576;23;20203;-70
2021/12/15 07:33:44;;;;;;;3.90;3.15;;;5.00;99.90;;;;;;6239630;23;20231;-70
2021/12/15 07:36:16;;;;;;;3.92;2.65;;;5.00;99.90;;;;;;6238659;23;20181;-69
2021/12/15 07:38:47;;;;;;;4.68;2.80;;;5.00;99.90;;;;;;6238083;23;20510;-69
2021/12/15 07:41:27;;;;;;;2.83;2.63;;;4.90;99.90;;;;;;6236980;23;20252;-70
2021/12/15 07:44:00;;;;;;;2.80;2.60;;;4.90;99.90;;;;;;6239872;23;20189;-70
2021/12/15 07:46:53;;;;;;;3.20;2.70;;;4.90;99.90;;;;;;6237010;23;20538;-69
2021/12/15 07:49:26;;;;;;;2.00;1.90;;;4.80;99.90;;;;;;6236661;23;20177;-68
2021/12/15 07:52:02;;;;;;;3.33;2.22;;;4.90;99.90;;;;;;6240291;23;20196;-69
2021/12/15 07:54:35;;;;;;;2.55;2.10;;;4.80;99.90;;;;;;6237736;23;20181;-69
2021/12/15 07:57:09;;;;;;;2.58;1.95;;;4.90;99.90;;;;;;6239988;23;20509;-69
2021/12/15 07:59:40;;;;;;;2.42;2.13;;;4.90;99.90;;;;;;6229693;23;20201;-69
2021/12/15 08:02:13;;;;;;;2.03;1.80;;;4.90;99.90;;;;;;6238057;23;20236;-69
2021/12/15 08:04:45;;;;;;;1.85;1.38;;;4.90;99.90;;;;;;6236092;22;20212;-69
2021/12/15 08:07:17;;;;;;;1.90;1.52;;;4.90;99.90;;;;;;6238060;23;20203;-69
2021/12/15 08:09:49;;;;;;;1.90;1.60;;;4.90;99.90;;;;;;6238104;23;20200;-69
2021/12/15 08:12:20;;;;;;;2.40;1.65;;;5.00;99.90;;;;;;6239588;23;20633;-69
2021/12/15 08:14:51;;;;;;;2.25;1.50;;;5.00;99.90;;;;;;6240305;23;20220;-68
2021/12/15 08:17:24;;;;;;;1.98;1.73;;;5.00;99.90;;;;;;6239742;23;20182;-69
2021/12/15 08:19:55;;;;;;;2.40;1.55;;;5.00;99.90;;;;;;6237112;23;20207;-69
2021/12/15 08:22:26;;;;;;;2.20;2.00;;;5.00;99.90;;;;;;6240025;23;20560;-69
2021/12/15 08:24:58;;;;;;;2.38;1.65;;;5.00;99.90;;;;;;6239644;23;20284;-68
2021/12/15 08:27:29;;;;;;;2.20;1.90;;;5.00;99.90;;;;;;6241761;23;20185;-69
2021/12/15 08:30:00;;;;;;;2.15;1.95;;;5.00;99.90;;;;;;6239581;23;20192;-69
2021/12/15 08:32:32;;;;;;;1.77;1.67;;;5.00;99.90;;;;;;6239887;23;20246;-69
2021/12/15 08:35:03;;;;;;;1.95;1.70;;;5.10;99.90;;;;;;6236452;23;20200;-69
2021/12/15 08:37:35;;;;;;;2.55;2.10;;;5.10;99.90;;;;;;6242062;23;20510;-69
2021/12/15 08:40:07;;;;;;;2.22;2.00;;;5.10;99.90;;;;;;6239446;23;20197;-69
2021/12/15 08:42:37;;;;;;;1.60;1.50;;;5.10;99.90;;;;;;6240087;23;20743;-69
2021/12/15 08:45:10;;;;;;;1.90;1.80;;;5.00;99.90;;;;;;6240639;23;20181;-69
2021/12/15 08:47:42;;;;;;;1.80;1.70;;;5.00;99.90;;;;;;6239590;23;20212;-69
2021/12/15 08:50:16;;;;;;;1.85;1.67;;;4.80;99.90;;;;;;6237905;23;20646;-69
2021/12/15 08:52:47;;;;;;;2.15;1.50;;;4.80;99.90;;;;;;6241707;23;20180;-70
2021/12/15 08:55:18;;;;;;;3.00;2.65;;;4.80;99.90;;;;;;6239453;23;20204;-70
2021/12/15 08:57:52;;;;;;;2.45;2.00;;;4.80;99.90;;;;;;6240744;23;20223;-70
2021/12/15 09:00:25;;;;;;;4.80;2.25;;;4.90;99.90;;;;;;6237274;23;20200;-70
2021/12/15 09:02:58;;;;;;;2.00;1.60;;;4.90;99.90;;;;;;6236909;23;20193;-70
2021/12/15 09:05:29;;;;;;;2.50;1.90;;;4.90;99.90;;;;;;6240157;23;20223;-70
2021/12/15 09:08:02;;;;;;;2.28;2.08;;;5.00;99.90;;;;;;6236968;23;20644;-70
2021/12/15 09:10:34;;;;;;;3.20;2.25;;;5.00;99.90;;;;;;6239521;23;20519;-70
2021/12/15 09:13:06;;;;;;;2.85;2.50;;;5.10;99.90;;;;;;6240140;23;20670;-70
2021/12/15 09:15:37;;;;;;;4.47;1.80;;;5.00;99.90;;;;;;6238465;23;20509;-70
2021/12/15 09:18:12;;;;;;;2.17;1.88;;;5.00;99.90;;;;;;6237565;23;20663;-69
2021/12/15 09:20:45;;;;;;;1.95;1.75;;;4.90;99.90;;;;;;6241357;23;20212;-70
2021/12/15 09:23:18;;;;;;;2.13;1.70;;;4.90;99.90;;;;;;6238286;23;20182;-68
2021/12/15 09:25:50;;;;;;;2.70;2.20;;;4.90;99.90;;;;;;6236983;23;20187;-70
2021/12/15 09:28:21;;;;;;;2.22;2.03;;;4.90;99.90;;;;;;6238688;23;20181;-71
2021/12/15 09:30:52;;;;;;;2.88;2.33;;;5.00;99.90;;;;;;6238734;23;20188;-69
2021/12/15 09:33:30;;;;;;;2.70;2.50;;;5.00;99.90;;;;;;6237872;23;20189;-68
2021/12/15 09:36:04;;;;;;;3.30;2.83;;;4.90;99.90;;;;;;6241590;23;20184;-69
2021/12/15 09:38:35;;;;;;;3.00;2.80;;;4.90;99.90;;;;;;6237419;23;20664;-70
2021/12/15 09:41:11;;;;;;;6.70;3.53;;;4.70;99.90;;;;;;6239187;23;20275;-69
2021/12/15 09:43:43;;;;;;;3.65;3.13;;;4.80;99.90;;;;;;6240672;23;20203;-70
2021/12/15 09:46:25;;;;;;;4.70;3.10;;;4.70;99.90;;;;;;6241335;23;20189;-69
2021/12/15 09:57:29;;;;;;;3.75;2.58;;;4.80;99.90;;;;;;6240961;23;20212;-69
2021/12/15 10:02:57;;;;;;;3.22;2.92;;;4.70;99.90;;;;;;6238513;23;20185;-68
2021/12/15 10:05:48;;;;;;;2.90;2.60;;;4.60;99.90;;;;;;6239192;22;20262;-69
2021/12/15 10:11:42;;;;;;;2.90;2.70;;;4.60;99.90;;;;;;6238489;23;20178;-69
2021/12/15 10:19:53;;;;;;;3.47;2.65;;;4.60;99.90;;;;;;6236907;23;20181;-69
2021/12/15 10:22:35;;;;;;;3.10;2.80;;;4.50;99.90;;;;;;6235927;23;20196;-70
2021/12/15 10:25:11;;;;;;;3.65;3.20;;;4.50;99.90;;;;;;6240395;23;20181;-69
2021/12/15 10:27:47;;;;;;;5.03;3.05;;;4.40;99.90;;;;;;6238334;23;20207;-70
2021/12/15 10:30:24;;;;;;;5.28;3.13;;;4.40;99.90;;;;;;6236146;23;20196;-69
2021/12/15 10:32:59;;;;;;;5.18;3.40;;;4.50;99.90;;;;;;6238041;23;20251;-69
2021/12/15 10:35:33;;;;;;;2.85;2.50;;;4.40;99.90;;;;;;6239889;23;20518;-68
2021/12/15 10:38:20;;;;;;;3.97;2.65;;;4.40;99.90;;;;;;6236460;23;20656;-69
2021/12/15 10:41:03;;;;;;;3.10;2.65;;;4.50;99.90;;;;;;6236424;23;20197;-69
2021/12/15 10:43:37;;;;;;;2.65;2.20;;;4.60;99.90;;;;;;6240506;23;20189;-68
2021/12/15 10:46:10;;;;;;;2.42;1.95;;;4.70;99.90;;;;;;6237956;23;20188;-68
2021/12/15 10:48:49;;;;;;;1.83;1.73;;;4.70;99.90;;;;;;6236907;23;20633;-68
2021/12/15 10:51:32;;;;;;;2.85;1.88;;;4.80;99.90;;;;;;6238961;23;20185;-68
2021/12/15 10:54:08;;;;;;;1.73;1.63;;;4.80;99.90;;;;;;6238319;23;20653;-69
2021/12/15 10:56:41;;;;;;;1.65;1.55;;;4.80;99.90;;;;;;6240537;23;20260;-68
2021/12/15 10:59:14;;;;;;;2.25;1.38;;;4.80;99.90;;;;;;6235599;23;20181;-68
2021/12/15 11:01:51;;;;;;;2.05;1.90;;;4.70;99.90;;;;;;6238577;23;20204;-68
2021/12/15 11:04:35;;;;;;;2.30;1.58;;;4.70;99.90;;;;;;6236869;23;20266;-68
2021/12/15 11:07:25;;;;;;;1.60;1.50;;;4.80;99.90;;;;;;6240363;23;20200;-69
2021/12/15 11:10:02;;;;;;;2.08;1.60;;;4.80;99.90;;;;;;6237108;23;20208;-68
2021/12/15 11:12:37;;;;;;;2.28;1.75;;;4.80;99.90;;;;;;6236825;23;20211;-68
2021/12/15 11:15:12;;;;;;;2.33;1.90;;;4.90;99.90;;;;;;6239773;23;20180;-68
2021/12/15 11:17:44;;;;;;;2.10;1.50;;;4.80;99.90;;;;;;6237902;23;20682;-68
2021/12/15 11:20:18;;;;;;;1.60;1.50;;;4.80;99.90;;;;;;6235185;23;20185;-68
2021/12/15 11:23:05;;;;;;;1.30;1.20;;;4.80;99.90;;;;;;6236101;23;20197;-68
2021/12/15 11:25:48;;;;;;;1.95;1.42;;;4.80;99.90;;;;;;6240010;23;20630;-68
2021/12/15 11:28:22;;;;;;;1.75;1.50;;;4.80;99.90;;;;;;6237545;23;20184;-68
2021/12/15 11:30:59;;;;;;;1.67;1.58;;;4.80;99.90;;;;;;6237795;23;20565;-68
2021/12/15 11:33:32;;;;;;;1.27;1.17;;;4.80;99.90;;;;;;6234605;23;20196;-68
2021/12/15 11:36:07;;;;;;;1.20;1.10;;;4.80;99.90;;;;;;6240546;23;20188;-68
2021/12/15 11:38:40;;;;;;;1.15;1.05;;;4.80;99.90;;;;;;6235955;23;20204;-69
2021/12/15 11:41:17;;;;;;;1.05;0.88;;;4.80;99.90;;;;;;6234116;23;20264;-70
2021/12/15 11:43:50;;;;;;;1.30;1.20;;;4.80;99.90;;;;;;6235407;23;20435;-69
2021/12/15 11:46:25;;;;;;;2.20;1.27;;;4.80;99.90;;;;;;6235942;23;20257;-69
2021/12/15 11:48:58;;;;;;;0.70;0.70;;;4.70;99.90;;;;;;6234636;23;20191;-69
2021/12/15 11:51:35;;;;;;;0.82;0.70;;;4.70;99.90;;;;;;6241710;23;20717;-69
2021/12/15 11:54:13;;;;;;;1.25;0.70;;;4.70;99.90;;;;;;6235795;23;20181;-69
2021/12/15 11:56:47;;;;;;;1.65;0.85;;;4.70;99.90;;;;;;6238302;23;20201;-69
2021/12/15 11:59:22;;;;;;;1.05;0.80;;;4.70;99.90;;;;;;6237695;23;20204;-69
2021/12/15 12:01:56;;;;;;;1.13;0.90;;;4.70;99.90;;;;;;6237610;23;20755;-69
2021/12/15 12:04:31;;;;;;;0.95;0.82;;;4.70;99.90;;;;;;6240166;22;20625;-69
2021/12/15 12:07:21;;;;;;;0.75;0.75;;;4.70;99.90;;;;;;6240369;23;20181;-69
2021/12/15 12:09:54;;;;;;;1.38;0.88;;;4.60;99.90;;;;;;6239671;23;20276;-69
2021/12/15 12:12:33;;;;;;;0.63;0.63;;;4.70;99.90;;;;;;6238175;23;20188;-69
2021/12/15 12:15:07;;;;;;;0.70;0.70;;;4.70;99.90;;;;;;6235278;23;20643;-69
2021/12/15 12:17:39;;;;;;;1.13;1.02;;;4.60;99.90;;;;;;6239833;23;20200;-69
2021/12/15 12:20:14;;;;;;;1.00;0.80;;;4.70;99.90;;;;;;6238347;23;20181;-69
2021/12/15 12:22:46;;;;;;;0.80;0.80;;;4.60;99.90;;;;;;6241630;23;20210;-69
2021/12/15 12:25:19;;;;;;;1.08;1.08;;;4.60;99.90;;;;;;6239200;23;20585;-70
2021/12/15 12:27:54;;;;;;;0.70;0.70;;;4.60;99.90;;;;;;6233739;23;20181;-69
2021/12/15 12:30:27;;;;;;;0.95;0.95;;;4.60;99.90;;;;;;6239689;23;20188;-69
2021/12/15 12:32:59;;;;;;;0.95;0.68;;;4.60;99.90;;;;;;6239789;23;20185;-69
2021/12/15 12:35:33;;;;;;;0.77;0.70;;;4.60;99.90;;;;;;6238811;23;20195;-69
2021/12/15 12:38:09;;;;;;;1.08;0.90;;;4.60;99.90;;;;;;6239567;23;20204;-69
2021/12/15 12:40:47;;;;;;;1.00;0.82;;;4.60;99.90;;;;;;6237863;23;20181;-70
2021/12/15 12:43:22;;;;;;;0.50;0.50;;;4.60;99.90;;;;;;6241457;23;20625;-69
2021/12/15 12:46:09;;;;;;;1.25;0.70;;;4.60;99.90;;;;;;6239033;23;20276;-68
2021/12/15 12:48:55;;;;;;;0.98;0.60;;;4.70;99.90;;;;;;6237988;23;20185;-69
2021/12/15 13:00:10;;;;;;;0.73;0.73;;;4.70;99.90;;;;;;6238980;23;20273;-69
2021/12/15 13:02:49;;;;;;;0.95;0.95;;;4.60;99.90;;;;;;6239333;23;20275;-70
2021/12/15 13:05:38;;;;;;;1.00;0.80;;;4.70;99.90;;;;;;6237755;22;20674;-69
2021/12/15 13:08:12;;;;;;;1.15;1.05;;;4.70;99.90;;;;;;6238862;23;20185;-68
2021/12/15 13:11:01;;;;;;;0.88;0.80;;;4.80;99.90;;;;;;6239788;23;20181;-69
2021/12/15 13:13:34;;;;;;;2.35;1.60;;;4.80;99.90;;;;;;6239192;23;20178;-68
2021/12/15 13:16:08;;;;;;;0.90;0.90;;;4.80;99.90;;;;;;6239739;23;20185;-68
2021/12/15 13:18:50;;;;;;;0.80;0.80;;;4.80;99.90;;;;;;6238669;23;20196;-68
2021/12/15 13:21:39;;;;;;;1.77;1.02;;;4.90;99.90;;;;;;6239356;23;20253;-68
2021/12/15 13:30:47;;;;;;;1.52;1.10;;;4.90;99.90;;;;;;6207868;23;20189;-70
2021/12/15 13:33:42;;;;;;;1.02;1.00;;;4.90;99.90;;;;;;6235960;23;20294;-69
2021/12/15 13:36:15;;;;;;;0.80;0.80;;;4.90;99.90;;;;;;6238877;23;20652;-69
2021/12/15 13:38:50;;;;;;;0.95;0.95;;;4.90;99.90;;;;;;6238748;23;20227;-70
2021/12/15 13:41:37;;;;;;;1.05;0.95;;;4.90;99.90;;;;;;6237837;23;20192;-69
2021/12/15 13:44:27;;;;;;;1.05;1.00;;;5.00;99.90;;;;;;6239042;23;20208;-69
2021/12/15 13:47:01;;;;;;;1.48;1.30;;;5.00;99.90;;;;;;6239321;23;20817;-69
2021/12/15 13:49:41;;;;;;;1.10;1.00;;;5.00;99.90;;;;;;6238551;23;20247;-69
2021/12/15 13:52:18;;;;;;;1.08;0.90;;;5.00;99.90;;;;;;6238619;23;20181;-69
2021/12/15 13:55:23;;;;;;;0.90;0.90;;;5.00;99.90;;;;;;6240712;23;20467;-69
2021/12/15 13:58:01;;;;;;;1.10;1.00;;;5.00;99.90;;;;;;6240716;23;20181;-69
2021/12/15 14:00:37;;;;;;;0.77;0.77;;;5.00;99.90;;;;;;6237574;23;20235;-69
2021/12/15 14:03:17;;;;;;;0.95;0.88;;;5.00;99.90;;;;;;6236307;23;20287;-70
2021/12/15 14:05:53;;;;;;;0.60;0.60;;;5.00;99.90;;;;;;6239753;23;20613;-70
2021/12/15 14:08:31;;;;;;;1.00;0.88;;;5.00;99.90;;;;;;6235889;23;20181;-69
2021/12/15 14:11:20;;;;;;;0.77;0.77;;;4.90;99.90;;;;;;6239073;23;20180;-68
2021/12/15 14:13:58;;;;;;;0.88;0.60;;;4.90;99.90;;;;;;6240601;23;20192;-68
2021/12/15 14:16:53;;;;;;;2.17;1.00;;;4.90;99.90;;;;;;6238903;23;20718;-69
2021/12/15 14:22:25;;;;;;;1.05;0.50;;;5.00;99.90;;;;;;6240439;23;20287;-70
2021/12/15 14:25:00;;;;;;;0.70;0.70;;;4.90;99.90;;;;;;6236237;23;20720;-69
2021/12/15 14:27:31;;;;;;;1.10;0.70;;;5.00;99.90;;;;;;6238312;23;20263;-68
2021/12/15 14:30:02;;;;;;;0.68;0.68;;;5.10;99.90;;;;;;6238708;23;20181;-68
2021/12/15 14:32:33;;;;;;;0.80;0.80;;;5.10;99.90;;;;;;6238385;23;20204;-68
2021/12/15 14:35:04;;;;;;;0.80;0.68;;;5.10;99.90;;;;;;6235878;23;20277;-70
2021/12/15 14:37:42;;;;;;;1.20;1.13;;;5.10;99.90;;;;;;6235335;23;20236;-69
2021/12/15 14:40:13;;;;;;;0.73;0.73;;;5.20;99.90;;;;;;6237685;23;20280;-69
2021/12/15 14:42:45;;;;;;;1.17;1.17;;;5.20;99.90;;;;;;6238078;23;20209;-70
2021/12/15 14:45:17;;;;;;;1.90;1.10;;;5.20;99.90;;;;;;6240017;23;20493;-69
2021/12/15 14:47:48;;;;;;;1.50;1.15;;;5.10;99.90;;;;;;6238271;23;20185;-69
2021/12/15 14:50:20;;;;;;;0.80;0.80;;;5.20;99.90;;;;;;6237697;23;20235;-70
2021/12/15 14:52:56;;;;;;;1.23;0.98;;;5.10;99.90;;;;;;6240646;23;20178;-69
2021/12/15 14:55:30;;;;;;;1.02;1.00;;;5.10;99.90;;;;;;6236597;23;20184;-69
2021/12/15 14:58:09;;;;;;;0.80;0.80;;;5.20;99.90;;;;;;6240467;23;20181;-70
2021/12/15 15:00:42;;;;;;;1.10;0.80;;;5.20;99.90;;;;;;6238909;23;20652;-69
2021/12/15 15:03:13;;;;;;;1.40;0.68;;;5.10;99.90;;;;;;6237011;23;20201;-69
2021/12/15 15:05:46;;;;;;;1.08;0.70;;;5.20;99.90;;;;;;6240261;23;20645;-69
2021/12/15 15:08:23;;;;;;;0.88;0.88;;;5.30;99.90;;;;;;6236054;23;20204;-70
2021/12/15 15:10:56;;;;;;;1.20;1.10;;;5.30;99.90;;;;;;6238701;23;20594;-70
2021/12/15 15:13:27;;;;;;;1.00;0.90;;;5.40;99.90;;;;;;6236191;23;20495;-70
2021/12/15 15:16:05;;;;;;;1.00;0.95;;;5.40;99.90;;;;;;6240412;23;20253;-70
2021/12/15 15:18:37;;;;;;;0.70;0.63;;;5.50;99.90;;;;;;6235700;23;20255;-70
2021/12/15 15:21:11;;;;;;;1.60;0.77;;;5.40;99.90;;;;;;6238432;23;20181;-70
2021/12/15 15:23:46;;;;;;;0.75;0.75;;;5.40;99.90;;;;;;6242245;23;20200;-70
2021/12/15 15:26:18;;;;;;;2.45;0.85;;;5.50;99.90;;;;;;6240604;23;20241;-70
2021/12/15 15:28:51;;;;;;;0.73;0.73;;;5.50;99.90;;;;;;6240507;23;20181;-70
2021/12/15 15:31:26;;;;;;;0.95;0.80;;;5.50;99.90;;;;;;6240576;23;20538;-70
2021/12/15 15:33:58;;;;;;;1.75;0.60;;;5.50;99.90;;;;;;6238742;23;20181;-70
2021/12/15 15:36:30;;;;;;;1.02;0.75;;;5.50;99.90;;;;;;6240517;23;20189;-69
2021/12/15 15:39:23;;;;;;;1.88;0.82;;;5.60;99.90;;;;;;6238566;23;20181;-70
2021/12/15 15:41:54;;;;;;;0.88;0.77;;;5.60;99.90;;;;;;6227460;23;20182;-69
2021/12/15 15:44:25;;;;;;;1.23;1.00;;;5.60;99.90;;;;;;6241407;23;20560;-69
2021/12/15 15:46:57;;;;;;;0.73;0.60;;;5.70;99.90;;;;;;6239550;23;20636;-69
2021/12/15 15:49:28;;;;;;;1.70;0.80;;;5.70;99.90;;;;;;6238737;23;20188;-70
2021/12/15 15:52:04;;;;;;;1.05;0.70;;;5.80;99.90;;;;;;6241341;23;20181;-70
2021/12/15 15:54:43;;;;;;;0.70;0.70;;;5.90;99.90;;;;;;6239793;23;20578;-77
2021/12/15 15:57:14;;;;;;;0.60;0.60;;;5.90;99.90;;;;;;6242023;23;20181;-70
2021/12/15 15:59:45;;;;;;;0.73;0.35;;;5.90;99.90;;;;;;6237156;23;20185;-68
2021/12/15 16:02:20;;;;;;;0.30;0.30;;;5.90;99.90;;;;;;6238460;23;20264;-72
2021/12/15 16:04:51;;;;;;;0.50;0.50;;;6.00;99.90;;;;;;6238633;23;20236;-67
2021/12/15 16:07:23;;;;;;;0.70;0.30;;;6.00;99.90;;;;;;6242388;23;20200;-67
2021/12/15 16:09:56;;;;;;;0.30;0.30;;;5.90;99.90;;;;;;6237235;23;20287;-68
2021/12/15 16:12:30;;;;;;;0.40;0.40;;;5.90;99.90;;;;;;6240277;23;20191;-67
2021/12/15 16:15:00;;;;;;;2.05;0.30;;;5.90;99.90;;;;;;6241289;23;20253;-67
2021/12/15 16:17:41;;;;;;;0.93;0.30;;;5.80;99.90;;;;;;6239010;23;20235;-67
2021/12/15 16:20:22;;;;;;;0.52;0.40;;;5.80;99.90;;;;;;6234672;23;20208;-69
2021/12/15 16:25:44;;;;;;;0.47;0.40;;;5.70;99.90;;;;;;6239373;23;20564;-68
2021/12/15 16:28:17;;;;;;;0.60;0.60;;;5.60;99.90;;;;;;6239549;23;20185;-69
2021/12/15 16:30:51;;;;;;;0.40;0.30;;;5.50;99.90;;;;;;6239270;23;20272;-69
2021/12/15 16:33:24;;;;;;;1.05;0.73;;;5.50;99.90;;;;;;6240614;23;20224;-67
2021/12/15 16:35:57;;;;;;;2.50;0.95;;;5.40;99.90;;;;;;6239979;23;20192;-70
2021/12/15 16:38:30;;;;;;;0.47;0.47;;;5.30;99.90;;;;;;6239486;23;20185;-69
2021/12/15 16:41:11;;;;;;;0.60;0.60;;;5.20;99.90;;;;;;6240143;23;20602;-69
2021/12/15 16:43:49;;;;;;;0.80;0.75;;;5.20;99.90;;;;;;6238721;23;20217;-69
2021/12/15 16:46:40;;;;;;;0.63;0.40;;;5.00;99.90;;;;;;6242082;23;20264;-69
2021/12/15 16:49:14;;;;;;;0.50;0.40;;;4.90;99.90;;;;;;6237852;23;20239;-69
2021/12/15 16:51:54;;;;;;;0.90;0.65;;;4.70;99.90;;;;;;6241758;23;20192;-69
2021/12/15 16:54:25;;;;;;;2.38;0.50;;;4.70;99.90;;;;;;6239539;23;20181;-71
2021/12/15 16:57:02;;;;;;;1.33;0.40;;;4.60;99.90;;;;;;6241711;23;20675;-70
2021/12/15 16:59:36;;;;;;;0.55;0.50;;;4.60;99.90;;;;;;6236696;23;20530;-68
2021/12/15 17:02:18;;;;;;;2.40;0.40;;;4.50;99.90;;;;;;6239563;23;20181;-68
2021/12/15 17:04:50;;;;;;;0.82;0.73;;;4.30;99.90;;;;;;6237713;22;20205;-68
2021/12/15 17:07:23;;;;;;;0.80;0.40;;;4.30;99.90;;;;;;6235150;23;20188;-69
2021/12/15 17:09:58;;;;;;;0.93;0.40;;;4.30;99.90;;;;;;6238797;23;20529;-69
2021/12/15 17:12:35;;;;;;;0.70;0.70;;;4.20;99.90;;;;;;6239047;23;20185;-67
2021/12/15 17:15:15;;;;;;;0.88;0.70;;;4.20;99.90;;;;;;6241622;23;20187;-67
2021/12/15 17:17:48;;;;;;;0.60;0.40;;;4.20;99.90;;;;;;6239039;23;20181;-67
2021/12/15 17:20:26;;;;;;;0.40;0.40;;;4.10;99.90;;;;;;6237520;23;20192;-69
2021/12/15 17:23:04;;;;;;;0.65;0.65;;;4.10;99.90;;;;;;6241069;23;20181;-68
2021/12/15 17:25:37;;;;;;;0.57;0.57;;;4.20;99.90;;;;;;6241926;23;20295;-68
2021/12/15 17:28:12;;;;;;;0.60;0.60;;;4.10;99.90;;;;;;6239342;23;20181;-68
2021/12/15 17:30:46;;;;;;;1.85;0.70;;;4.00;99.90;;;;;;6235175;23;20196;-69
2021/12/15 17:33:33;;;;;;;0.82;0.50;;;4.00;99.90;;;;;;6240479;23;20187;-68
2021/12/15 17:36:20;;;;;;;1.40;0.60;;;4.00;99.90;;;;;;6239157;23;20193;-68
2021/12/15 17:38:56;;;;;;;0.55;0.50;;;3.90;99.90;;;;;;6236691;23;20185;-68
2021/12/15 17:41:30;;;;;;;0.95;0.45;;;3.80;99.90;;;;;;6239751;23;20192;-68
2021/12/15 17:44:08;;;;;;;1.25;0.90;;;3.80;99.90;;;;;;6234321;23;20185;-68
2021/12/15 17:46:42;;;;;;;0.65;0.52;;;3.80;99.90;;;;;;6241248;23;20180;-68
2021/12/15 17:49:24;;;;;;;0.70;0.60;;;3.80;99.90;;;;;;6237928;23;20188;-69
2021/12/15 17:52:12;;;;;;;3.20;0.90;;;3.90;99.90;;;;;;6241007;23;20185;-68
2021/12/15 17:54:47;;;;;;;0.60;0.60;;;3.90;99.90;;;;;;6238819;23;20688;-69